createdAt,value
2022-11-01T00:00:54.510Z,166
2022-11-01T00:03:53.980Z,168
2022-11-01T00:05:54.009Z,155
2022-11-01T00:08:54.008Z,173
2022-11-01T00:10:54.021Z,167
2022-11-01T00:13:53.980Z,128
2022-11-01T00:15:53.966Z,151
2022-11-01T00:17:53.980Z,132
2022-11-01T00:20:53.982Z,216
2022-11-01T00:22:54.086Z,215
2022-11-01T00:24:54.821Z,164
2022-11-01T00:26:54.161Z,191
2022-11-01T00:29:54.001Z,136
2022-11-01T00:32:53.994Z,177
2022-11-01T00:35:53.973Z,182
2022-11-01T00:37:53.989Z,163
2022-11-01T00:39:54.248Z,162
2022-11-01T00:42:53.985Z,195
2022-11-01T00:45:54.019Z,169
2022-11-01T00:48:54.082Z,142
2022-11-01T00:51:54.042Z,116
2022-11-01T00:54:53.991Z,150
2022-11-01T00:56:54.016Z,120
2022-11-01T01:01:54.049Z,154
2022-11-01T01:03:54.000Z,164
2022-11-01T01:06:54.005Z,115
2022-11-01T01:08:54.014Z,162
2022-11-01T01:11:53.989Z,150
2022-11-01T01:13:53.989Z,125
2022-11-01T01:15:54.029Z,143
2022-11-01T01:18:54.010Z,129
2022-11-01T01:21:53.997Z,185
2022-11-01T01:23:53.993Z,144
2022-11-01T01:25:54.062Z,118
2022-11-01T01:28:53.991Z,127
2022-11-01T01:30:54.018Z,201
2022-11-01T01:33:54.023Z,116
2022-11-01T01:36:54.023Z,125
2022-11-01T01:38:54.096Z,110
2022-11-01T01:41:53.971Z,132
2022-11-01T01:43:54.017Z,105
2022-11-01T01:46:54.294Z,138
2022-11-01T01:52:53.990Z,106
2022-11-01T01:54:54.023Z,160
2022-11-01T01:57:54.061Z,130
2022-11-01T02:00:54.043Z,136
2022-11-01T02:02:54.015Z,151
2022-11-01T02:08:54.056Z,133
2022-11-01T02:11:54.008Z,144
2022-11-01T02:14:04.282Z,110
2022-11-01T02:16:54.000Z,97
2022-11-01T02:19:07.686Z,114
2022-11-01T02:22:12.754Z,108
2022-11-01T02:24:16.171Z,147
2022-11-01T02:26:54.033Z,218
2022-11-01T02:29:54.001Z,161
2022-11-01T02:31:54.014Z,183
2022-11-01T02:34:05.993Z,194
2022-11-01T02:37:53.974Z,297
2022-11-01T02:39:54.026Z,225
2022-11-01T02:41:55.771Z,130
2022-11-01T02:44:54.015Z,198
2022-11-01T02:47:54.022Z,176
2022-11-01T02:49:54.018Z,126
2022-11-01T02:51:54.014Z,87
2022-11-01T02:54:08.505Z,134
2022-11-01T02:56:54.013Z,98
2022-11-01T02:58:54.001Z,90
2022-11-01T03:01:54.145Z,81
2022-11-01T03:04:54.023Z,89
2022-11-01T03:07:53.993Z,154
2022-11-01T03:10:54.016Z,134
2022-11-01T03:14:54.000Z,182
2022-11-01T03:18:54.030Z,148
2022-11-01T03:21:54.014Z,124
2022-11-01T03:24:54.016Z,155
2022-11-01T03:27:54.060Z,162
2022-11-01T03:30:54.009Z,164
2022-11-01T03:32:54.011Z,228
2022-11-01T03:35:54.032Z,191
2022-11-01T03:38:54.155Z,216
2022-11-01T03:41:54.025Z,162
2022-11-01T03:44:54.023Z,188
2022-11-01T03:47:54.017Z,122
2022-11-01T03:50:54.011Z,123
2022-11-01T03:52:54.002Z,187
2022-11-01T03:54:54.035Z,145
2022-11-01T03:58:53.996Z,172
2022-11-01T04:02:54.052Z,171
2022-11-01T04:06:54.015Z,80
2022-11-01T04:08:54.008Z,154
2022-11-01T04:10:54.021Z,172
2022-11-01T04:12:54.023Z,98
2022-11-01T04:15:53.989Z,80
2022-11-01T04:17:54.107Z,101
2022-11-01T04:20:54.049Z,64
2022-11-01T04:22:54.076Z,65
2022-11-01T04:25:54.014Z,66
2022-11-01T04:28:54.034Z,65
2022-11-01T04:30:54.097Z,59
2022-11-01T04:33:54.026Z,43
2022-11-01T04:37:54.056Z,62
2022-11-01T04:40:54.030Z,57
2022-11-01T04:42:54.025Z,57
2022-11-01T04:44:54.038Z,54
2022-11-01T04:46:54.011Z,66
2022-11-01T04:49:54.027Z,70
2022-11-01T04:52:54.088Z,56
2022-11-01T04:55:54.042Z,37
2022-11-01T04:58:54.027Z,26
2022-11-01T05:01:54.156Z,94
2022-11-01T05:04:54.039Z,72
2022-11-01T05:07:54.058Z,120
2022-11-01T05:09:54.043Z,198
2022-11-01T05:12:54.048Z,167
2022-11-01T05:14:55.820Z,91
2022-11-01T05:17:54.032Z,154
2022-11-01T05:19:54.023Z,117
2022-11-01T05:21:54.057Z,151
2022-11-01T05:24:54.010Z,165
2022-11-01T05:27:54.013Z,91
2022-11-01T05:29:54.029Z,119
2022-11-01T05:31:54.133Z,107
2022-11-01T05:34:54.036Z,174
2022-11-01T05:36:54.035Z,134
2022-11-01T05:39:54.061Z,132
2022-11-01T05:41:55.530Z,159
2022-11-01T05:44:54.043Z,146
2022-11-01T05:46:54.032Z,165
2022-11-01T05:48:54.035Z,187
2022-11-01T05:51:54.053Z,171
2022-11-01T05:53:54.038Z,142
2022-11-01T05:56:54.041Z,126
2022-11-01T05:59:54.043Z,129
2022-11-01T06:02:54.072Z,176
2022-11-01T06:05:54.067Z,140
2022-11-01T06:08:54.101Z,147
2022-11-01T06:11:54.041Z,108
2022-11-01T06:14:54.041Z,124
2022-11-01T06:16:54.076Z,114
2022-11-01T06:19:54.117Z,89
2022-11-01T06:22:54.117Z,117
2022-11-01T06:24:54.106Z,89
2022-11-01T06:27:54.095Z,106
2022-11-01T06:29:54.110Z,99
2022-11-01T06:32:54.098Z,108
2022-11-01T06:35:54.118Z,100
2022-11-01T06:37:54.096Z,97
2022-11-01T06:40:54.122Z,50
2022-11-01T06:44:04.380Z,179
2022-11-01T06:46:54.097Z,134
2022-11-01T06:48:57.473Z,108
2022-11-01T06:51:54.122Z,52
2022-11-01T06:54:54.113Z,130
2022-11-01T06:57:54.130Z,77
2022-11-01T07:00:54.125Z,46
2022-11-01T07:03:54.117Z,60
2022-11-01T07:05:54.092Z,60
2022-11-01T07:07:54.108Z,89
2022-11-01T07:10:54.093Z,87
2022-11-01T07:13:54.092Z,86
2022-11-01T07:16:54.098Z,74
2022-11-01T07:19:54.103Z,74
2022-11-01T07:21:54.119Z,64
2022-11-01T07:24:54.115Z,49
2022-11-01T07:26:54.109Z,107
2022-11-01T07:29:54.090Z,69
2022-11-01T07:31:54.117Z,56
2022-11-01T07:34:54.129Z,49
2022-11-01T07:37:54.101Z,62
2022-11-01T07:39:54.097Z,62
2022-11-01T07:42:54.121Z,63
2022-11-01T07:45:54.106Z,51
2022-11-01T07:47:54.119Z,81
2022-11-01T07:50:54.118Z,52
2022-11-01T07:53:54.155Z,71
2022-11-01T07:55:54.149Z,55
2022-11-01T07:58:54.156Z,45
2022-11-01T08:01:54.267Z,53
2022-11-01T08:03:54.139Z,57
2022-11-01T08:06:04.417Z,66
2022-11-01T08:08:54.117Z,59
2022-11-01T08:10:54.126Z,85
2022-11-01T08:12:54.151Z,88
2022-11-01T08:16:54.128Z,50
2022-11-01T08:19:54.128Z,69
2022-11-01T08:21:54.136Z,72
2022-11-01T08:24:54.124Z,48
2022-11-01T08:26:54.206Z,67
2022-11-01T08:29:54.112Z,37
2022-11-01T08:31:54.165Z,48
2022-11-01T08:35:09.578Z,92
2022-11-01T08:37:54.152Z,78
2022-11-01T08:39:54.161Z,57
2022-11-01T08:42:54.114Z,45
2022-11-01T08:44:54.102Z,79
2022-11-01T08:46:54.122Z,68
2022-11-01T08:50:11.226Z,55
2022-11-01T08:51:54.093Z,58
2022-11-01T08:54:58.988Z,43
2022-11-01T08:57:54.109Z,42
2022-11-01T08:59:54.142Z,30
2022-11-01T09:01:54.204Z,26
2022-11-01T09:03:54.156Z,39
2022-11-01T09:06:04.428Z,29
2022-11-01T09:08:54.109Z,19
2022-11-01T09:10:54.147Z,37
2022-11-01T09:13:54.105Z,71
2022-11-01T09:15:56.273Z,49
2022-11-01T09:18:54.119Z,76
2022-11-01T09:20:54.137Z,50
2022-11-01T09:23:54.121Z,34
2022-11-01T09:25:54.137Z,28
2022-11-01T09:28:54.097Z,35
2022-11-01T09:31:01.195Z,30
2022-11-01T09:33:54.134Z,51
2022-11-01T09:36:54.136Z,50
2022-11-01T09:39:54.116Z,31
2022-11-01T09:42:57.890Z,47
2022-11-01T09:44:54.147Z,31
2022-11-01T09:47:54.123Z,42
2022-11-01T09:50:54.124Z,45
2022-11-01T09:52:54.129Z,44
2022-11-01T09:54:56.770Z,95
2022-11-01T09:57:54.117Z,33
2022-11-01T09:59:54.134Z,37
2022-11-01T10:02:54.152Z,45
2022-11-01T10:05:54.164Z,64
2022-11-01T10:08:54.145Z,31
2022-11-01T10:10:54.170Z,54
2022-11-01T10:14:54.148Z,32
2022-11-01T10:16:54.157Z,29
2022-11-01T10:19:54.218Z,67
2022-11-01T10:22:54.153Z,92
2022-11-01T10:25:54.154Z,61
2022-11-01T10:27:54.167Z,43
2022-11-01T10:30:54.182Z,44
2022-11-01T10:32:54.185Z,35
2022-11-01T10:35:54.143Z,50
2022-11-01T10:38:03.847Z,36
2022-11-01T10:40:54.187Z,74
2022-11-01T10:43:54.154Z,68
2022-11-01T10:45:54.163Z,55
2022-11-01T10:47:54.166Z,30
2022-11-01T10:50:54.173Z,53
2022-11-01T10:52:54.168Z,52
2022-11-01T10:54:54.168Z,48
2022-11-01T10:56:54.171Z,54
2022-11-01T10:59:54.160Z,44
2022-11-01T11:02:54.238Z,35
2022-11-01T11:05:54.174Z,28
2022-11-01T11:08:54.162Z,44
2022-11-01T11:10:54.196Z,70
2022-11-01T11:13:54.157Z,25
2022-11-01T11:15:54.152Z,35
2022-11-01T11:18:54.184Z,29
2022-11-01T11:20:54.137Z,63
2022-11-01T11:23:54.176Z,44
2022-11-01T11:25:54.172Z,20
2022-11-01T11:28:54.166Z,20
2022-11-01T11:30:54.201Z,52
2022-11-01T11:32:54.156Z,37
2022-11-01T11:34:54.165Z,29
2022-11-01T11:37:54.141Z,37
2022-11-01T11:40:54.146Z,29
2022-11-01T11:42:54.173Z,53
2022-11-01T11:45:54.138Z,35
2022-11-01T11:47:54.144Z,32
2022-11-01T11:50:54.142Z,31
2022-11-01T11:52:54.134Z,36
2022-11-01T11:54:54.170Z,41
2022-11-01T11:57:54.151Z,45
2022-11-01T11:59:54.132Z,35
2022-11-01T12:01:54.310Z,35
2022-11-01T12:04:54.140Z,40
2022-11-01T12:07:54.156Z,27
2022-11-01T12:09:54.136Z,15
2022-11-01T12:12:54.150Z,45
2022-11-01T12:14:54.164Z,30
2022-11-01T12:16:54.166Z,28
2022-11-01T12:19:54.162Z,62
2022-11-01T12:22:54.146Z,42
2022-11-01T12:24:54.150Z,51
2022-11-01T12:27:54.175Z,50
2022-11-01T12:29:54.193Z,41
2022-11-01T12:32:54.166Z,26
2022-11-01T12:39:14.722Z,23
2022-11-01T12:41:54.171Z,27
2022-11-01T12:43:57.549Z,59
2022-11-01T12:46:54.169Z,21
2022-11-01T12:49:54.176Z,38
2022-11-01T12:51:54.252Z,29
2022-11-01T12:54:54.165Z,26
2022-11-01T12:56:54.171Z,20
2022-11-01T12:59:54.202Z,40
2022-11-01T13:01:54.290Z,34
2022-11-01T13:04:54.237Z,47
2022-11-01T13:07:54.192Z,49
2022-11-01T13:10:54.175Z,56
2022-11-01T13:13:54.179Z,25
2022-11-01T13:16:54.155Z,48
2022-11-01T13:20:54.217Z,43
2022-11-01T13:23:04.875Z,42
2022-11-01T13:25:54.166Z,31
2022-11-01T13:27:54.186Z,32
2022-11-01T13:29:54.171Z,34
2022-11-01T13:31:54.299Z,50
2022-11-01T13:34:54.196Z,41
2022-11-01T13:36:54.199Z,41
2022-11-01T13:39:54.192Z,48
2022-11-01T13:42:54.224Z,41
2022-11-01T13:45:54.165Z,41
2022-11-01T13:47:54.196Z,34
2022-11-01T13:50:54.209Z,34
2022-11-01T13:52:54.222Z,36
2022-11-01T13:54:54.197Z,47
2022-11-01T13:57:54.214Z,25
2022-11-01T13:59:54.207Z,20
2022-11-01T14:02:54.202Z,49
2022-11-01T14:05:54.208Z,22
2022-11-01T14:07:54.212Z,51
2022-11-01T14:10:54.218Z,51
2022-11-01T14:12:54.214Z,37
2022-11-01T14:15:54.319Z,40
2022-11-01T14:18:54.216Z,31
2022-11-01T14:21:54.226Z,69
2022-11-01T14:23:54.265Z,31
2022-11-01T14:26:54.221Z,31
2022-11-01T14:28:54.227Z,82
2022-11-01T14:31:54.217Z,37
2022-11-01T14:34:54.206Z,31
2022-11-01T14:37:54.282Z,52
2022-11-01T14:40:54.193Z,17
2022-11-01T14:43:54.281Z,39
2022-11-01T14:46:04.497Z,36
2022-11-01T14:48:54.234Z,42
2022-11-01T14:50:54.218Z,62
2022-11-01T14:52:54.255Z,60
2022-11-01T14:56:54.258Z,49
2022-11-01T14:59:54.239Z,40
2022-11-01T15:02:04.595Z,36
2022-11-01T15:04:54.238Z,42
2022-11-01T15:07:54.211Z,40
2022-11-01T15:10:54.403Z,35
2022-11-01T15:13:54.235Z,56
2022-11-01T15:15:54.253Z,45
2022-11-01T15:17:54.249Z,32
2022-11-01T15:19:57.594Z,41
2022-11-01T15:22:54.259Z,41
2022-11-01T15:25:54.211Z,62
2022-11-01T15:27:54.233Z,42
2022-11-01T15:30:54.244Z,68
2022-11-01T15:32:54.265Z,87
2022-11-01T15:35:04.522Z,49
2022-11-01T15:37:54.217Z,57
2022-11-01T15:39:54.264Z,66
2022-11-01T15:42:54.310Z,38
2022-11-01T15:45:54.261Z,63
2022-11-01T15:48:54.232Z,38
2022-11-01T15:51:54.233Z,56
2022-11-01T15:53:54.276Z,39
2022-11-01T15:57:04.503Z,55
2022-11-01T16:00:54.338Z,58
2022-11-01T16:03:54.246Z,38
2022-11-01T16:07:01.051Z,57
2022-11-01T16:09:54.233Z,53
2022-11-01T16:12:54.245Z,66
2022-11-01T16:15:54.274Z,64
2022-11-01T16:18:54.272Z,42
2022-11-01T16:21:54.242Z,49
2022-11-01T16:23:54.252Z,81
2022-11-01T16:26:54.235Z,50
2022-11-01T16:29:54.218Z,37
2022-11-01T16:31:54.288Z,51
2022-11-01T16:34:54.211Z,51
2022-11-01T16:37:54.245Z,47
2022-11-01T16:40:54.240Z,130
2022-11-01T16:42:54.218Z,75
2022-11-01T16:45:54.245Z,78
2022-11-01T16:48:54.218Z,87
2022-11-01T16:50:54.230Z,103
2022-11-01T16:52:54.214Z,59
2022-11-01T16:55:57.931Z,116
2022-11-01T16:57:54.252Z,89
2022-11-01T16:59:54.299Z,134
2022-11-01T17:03:54.284Z,90
2022-11-01T17:06:58.055Z,155
2022-11-01T17:09:54.279Z,139
2022-11-01T17:12:54.265Z,49
2022-11-01T17:14:54.245Z,99
2022-11-01T17:17:54.271Z,95
2022-11-01T17:20:54.270Z,66
2022-11-01T17:23:54.267Z,81
2022-11-01T17:26:54.258Z,95
2022-11-01T17:28:54.275Z,71
2022-11-01T17:31:54.228Z,96
2022-11-01T17:34:54.226Z,90
2022-11-01T17:36:54.278Z,89
2022-11-01T17:38:54.268Z,100
2022-11-01T17:40:54.271Z,101
2022-11-01T17:43:54.246Z,169
2022-11-01T17:45:54.262Z,100
2022-11-01T17:48:54.263Z,82
2022-11-01T17:50:54.251Z,92
2022-11-01T17:52:55.342Z,93
2022-11-01T17:55:54.284Z,92
2022-11-01T17:58:54.267Z,64
2022-11-01T18:00:54.331Z,27
2022-11-01T18:03:54.239Z,85
2022-11-01T18:05:54.277Z,42
2022-11-01T18:07:54.255Z,55
2022-11-01T18:10:01.509Z,57
2022-11-01T18:13:09.889Z,32
2022-11-01T18:14:54.279Z,43
2022-11-01T18:17:54.274Z,34
2022-11-01T18:20:55.254Z,36
2022-11-01T18:22:54.267Z,54
2022-11-01T18:25:54.242Z,37
2022-11-01T18:27:54.286Z,83
2022-11-01T18:30:54.265Z,57
2022-11-01T18:32:54.296Z,62
2022-11-01T18:35:54.278Z,37
2022-11-01T18:37:54.300Z,58
2022-11-01T18:39:54.302Z,53
2022-11-01T18:42:54.304Z,78
2022-11-01T18:44:54.294Z,42
2022-11-01T18:47:54.280Z,78
2022-11-01T18:49:54.292Z,56
2022-11-01T18:51:54.264Z,56
2022-11-01T18:54:56.808Z,51
2022-11-01T18:57:54.279Z,49
2022-11-01T19:00:54.346Z,45
2022-11-01T19:03:54.251Z,62
2022-11-01T19:05:54.299Z,45
2022-11-01T19:08:54.285Z,47
2022-11-01T19:11:54.273Z,52
2022-11-01T19:13:54.311Z,36
2022-11-01T19:16:54.268Z,55
2022-11-01T19:18:54.278Z,63
2022-11-01T19:21:54.294Z,69
2022-11-01T19:23:54.285Z,57
2022-11-01T19:26:54.266Z,45
2022-11-01T19:29:57.825Z,63
2022-11-01T19:33:54.282Z,65
2022-11-01T19:35:54.389Z,71
2022-11-01T19:38:54.298Z,42
2022-11-01T19:41:54.273Z,74
2022-11-01T19:44:54.285Z,40
2022-11-01T19:47:54.267Z,46
2022-11-01T19:49:54.303Z,68
2022-11-01T19:51:54.293Z,66
2022-11-01T19:54:54.306Z,78
2022-11-01T19:56:54.280Z,102
2022-11-01T19:59:54.287Z,68
2022-11-01T20:03:26.214Z,69
2022-11-01T20:04:55.992Z,121
2022-11-01T20:07:54.248Z,94
2022-11-01T20:09:58.371Z,85
2022-11-01T20:11:54.256Z,71
2022-11-01T20:13:54.270Z,78
2022-11-01T20:15:54.302Z,70
2022-11-01T20:17:54.303Z,102
2022-11-01T20:20:54.288Z,82
2022-11-01T20:23:54.267Z,99
2022-11-01T20:25:54.324Z,79
2022-11-01T20:29:04.565Z,124
2022-11-01T20:31:54.323Z,84
2022-11-01T20:33:54.308Z,92
2022-11-01T20:37:22.547Z,86
2022-11-01T20:38:54.292Z,82
2022-11-01T20:41:54.300Z,81
2022-11-01T20:43:54.288Z,61
2022-11-01T20:46:54.289Z,114
2022-11-01T20:48:54.302Z,104
2022-11-01T20:51:55.683Z,117
2022-11-01T20:54:55.356Z,79
2022-11-01T20:56:54.310Z,100
2022-11-01T20:59:54.319Z,61
2022-11-01T21:02:54.328Z,117
2022-11-01T21:05:54.298Z,106
2022-11-01T21:07:54.332Z,92
2022-11-01T21:10:54.313Z,80
2022-11-01T21:13:54.317Z,88
2022-11-01T21:16:54.305Z,115
2022-11-01T21:18:54.349Z,106
2022-11-01T21:21:54.352Z,132
2022-11-01T21:24:54.318Z,124
2022-11-01T21:27:54.308Z,97
2022-11-01T21:29:54.391Z,136
2022-11-01T21:32:54.316Z,70
2022-11-01T21:35:54.576Z,104
2022-11-01T21:38:54.303Z,68
2022-11-01T21:41:54.326Z,91
2022-11-01T21:43:54.334Z,77
2022-11-01T21:46:54.288Z,86
2022-11-01T21:49:54.312Z,83
2022-11-01T21:51:54.444Z,146
2022-11-01T21:55:54.323Z,73
2022-11-01T21:58:54.302Z,76
2022-11-01T22:00:54.337Z,101
2022-11-01T22:03:54.317Z,74
2022-11-01T22:06:55.327Z,85
2022-11-01T22:09:54.321Z,70
2022-11-01T22:12:54.285Z,103
2022-11-01T22:15:54.300Z,69
2022-11-01T22:17:54.321Z,108
2022-11-01T22:20:54.332Z,84
2022-11-01T22:23:54.310Z,61
2022-11-01T22:26:54.297Z,86
2022-11-01T22:28:54.295Z,103
2022-11-01T22:31:54.343Z,98
2022-11-01T22:34:54.333Z,72
2022-11-01T22:36:54.323Z,74
2022-11-01T22:39:54.307Z,65
2022-11-01T22:41:54.335Z,84
2022-11-01T22:44:54.362Z,73
2022-11-01T22:47:54.322Z,79
2022-11-01T22:50:54.328Z,89
2022-11-01T22:54:54.332Z,74
2022-11-01T22:57:54.355Z,67
2022-11-01T23:00:54.384Z,94
2022-11-01T23:02:54.432Z,87
2022-11-01T23:05:54.308Z,93
2022-11-01T23:08:57.393Z,150
2022-11-01T23:11:54.303Z,53
2022-11-01T23:13:54.343Z,46
2022-11-01T23:15:54.321Z,87
2022-11-01T23:18:54.340Z,101
2022-11-01T23:20:54.337Z,99
2022-11-01T23:23:54.323Z,84
2022-11-01T23:25:54.353Z,100
2022-11-01T23:27:54.358Z,133
2022-11-01T23:30:54.347Z,71
2022-11-01T23:33:54.324Z,173
2022-11-01T23:35:54.365Z,106
2022-11-01T23:37:55.944Z,86
2022-11-01T23:40:54.340Z,113
2022-11-01T23:43:54.330Z,66
2022-11-01T23:47:09.573Z,68
2022-11-01T23:48:54.325Z,121
2022-11-01T23:51:54.305Z,52
2022-11-01T23:53:54.320Z,75
2022-11-01T23:56:54.353Z,148
2022-11-01T23:58:57.426Z,115
